Time;durP1;ratioP1;P1;durP2;ratioP2;P2;SDS_P1;SDS_P2;PMS_P1;PMS_P2;Temp;Humidity;BMP_temperature;BMP_pressure;BME280_temperature;BME280_humidity;BME280_pressure;Samples;Min_cycle;Max_cycle;Signal;HPM_P1;HPM_P2
2023/03/23 00:01:19;;;;;;;10.63;10.03;;;13.00;99.90;;;;;;5091349;28;20465;-72
2023/03/23 00:03:46;;;;;;;9.83;9.23;;;13.00;99.90;;;;;;5090537;28;20582;-71
2023/03/23 00:06:16;;;;;;;11.47;10.60;;;13.00;99.90;;;;;;5092063;28;20462;-70
2023/03/23 00:08:46;;;;;;;9.60;8.90;;;12.90;99.90;;;;;;5094820;28;20462;-72
2023/03/23 00:11:16;;;;;;;10.43;9.53;;;12.90;99.90;;;;;;5090475;28;20485;-70
2023/03/23 00:13:43;;;;;;;10.90;10.23;;;13.00;99.90;;;;;;5092164;28;20469;-70
2023/03/23 00:16:17;;;;;;;10.90;10.13;;;12.90;99.90;;;;;;5092335;28;20458;-71
2023/03/23 00:18:45;;;;;;;10.20;9.40;;;12.90;99.90;;;;;;5089291;28;20989;-69
2023/03/23 00:21:12;;;;;;;10.27;9.67;;;12.90;99.90;;;;;;5094656;28;20797;-70
2023/03/23 00:23:44;;;;;;;10.70;9.97;;;13.00;99.90;;;;;;5089988;28;20493;-70
2023/03/23 00:26:13;;;;;;;9.80;9.23;;;13.00;99.90;;;;;;5087014;28;20469;-72
2023/03/23 00:28:41;;;;;;;8.67;8.17;;;13.00;99.90;;;;;;5092473;28;20481;-70
2023/03/23 00:31:09;;;;;;;9.70;9.00;;;12.90;99.90;;;;;;5093137;28;20474;-71
2023/03/23 00:33:40;;;;;;;9.60;8.90;;;12.90;99.90;;;;;;5090050;28;20461;-69
2023/03/23 00:36:08;;;;;;;9.53;8.77;;;12.90;99.90;;;;;;5095420;28;20556;-70
2023/03/23 00:38:36;;;;;;;9.13;8.53;;;12.90;99.90;;;;;;5088280;28;20550;-71
2023/03/23 00:41:04;;;;;;;9.70;8.80;;;12.90;99.90;;;;;;5086962;28;20535;-69
2023/03/23 00:43:32;;;;;;;9.57;8.97;;;12.90;99.90;;;;;;5090438;28;20489;-72
2023/03/23 00:46:00;;;;;;;9.47;8.97;;;12.90;99.90;;;;;;5090327;28;20756;-69
2023/03/23 00:48:29;;;;;;;10.07;9.27;;;12.90;99.90;;;;;;5087438;28;20781;-72
2023/03/23 00:50:57;;;;;;;9.37;8.67;;;13.00;99.90;;;;;;5092926;28;20461;-70
2023/03/23 00:53:25;;;;;;;9.00;8.50;;;13.00;99.90;;;;;;5088410;28;20845;-70
2023/03/23 00:55:52;;;;;;;9.47;8.87;;;13.00;99.90;;;;;;5087826;28;20479;-71
2023/03/23 00:58:19;;;;;;;9.47;8.97;;;13.00;99.90;;;;;;5090270;28;20491;-72
2023/03/23 01:00:45;;;;;;;9.70;9.13;;;12.90;99.90;;;;;;5093258;28;20461;-70
2023/03/23 01:03:18;;;;;;;9.27;8.67;;;12.90;99.90;;;;;;5091308;28;20499;-71
2023/03/23 01:05:46;;;;;;;9.03;8.43;;;12.90;99.90;;;;;;5086075;28;20462;-70
2023/03/23 01:08:16;;;;;;;9.93;9.17;;;12.90;99.90;;;;;;5087395;28;20457;-71
2023/03/23 01:10:43;;;;;;;9.60;8.90;;;13.00;99.90;;;;;;5092035;28;20975;-72
2023/03/23 01:13:09;;;;;;;9.53;8.83;;;12.90;99.90;;;;;;5089292;28;20736;-71
2023/03/23 01:15:36;;;;;;;9.10;8.50;;;12.90;99.90;;;;;;5094935;28;20833;-71
2023/03/23 01:18:03;;;;;;;8.70;8.10;;;12.90;99.90;;;;;;5090555;28;20863;-72
2023/03/23 01:20:32;;;;;;;20.63;11.80;;;12.80;99.90;;;;;;5095633;28;20822;-69
2023/03/23 01:23:00;;;;;;;39.07;20.90;;;12.90;99.90;;;;;;5088902;28;20461;-69
2023/03/23 01:25:28;;;;;;;22.97;21.00;;;12.80;99.90;;;;;;5087673;28;20496;-70
2023/03/23 01:27:56;;;;;;;22.87;21.17;;;12.50;99.90;;;;;;5095463;28;20563;-70
2023/03/23 01:30:23;;;;;;;21.77;19.97;;;12.30;99.90;;;;;;5094304;28;20612;-69
2023/03/23 01:32:51;;;;;;;21.67;20.37;;;12.10;99.90;;;;;;5090595;28;20511;-70
2023/03/23 01:35:18;;;;;;;20.40;19.10;;;11.90;99.90;;;;;;5091382;28;20454;-70
2023/03/23 01:37:48;;;;;;;20.57;19.00;;;11.80;99.90;;;;;;5085312;28;20957;-70
2023/03/23 01:40:16;;;;;;;19.63;18.43;;;11.80;99.90;;;;;;5085433;28;22665;-70
2023/03/23 01:42:43;;;;;;;18.90;17.63;;;11.70;99.90;;;;;;5093510;28;20523;-71
2023/03/23 01:45:34;;;;;;;19.47;18.17;;;11.70;99.90;;;;;;5089055;28;20490;-70
2023/03/23 01:48:07;;;;;;;19.60;18.50;;;11.60;99.90;;;;;;5088298;28;20498;-70
2023/03/23 01:50:40;;;;;;;18.80;17.60;;;11.60;99.90;;;;;;5090518;28;20454;-71
2023/03/23 01:53:12;;;;;;;18.40;17.30;;;11.60;99.90;;;;;;5092459;28;20459;-70
2023/03/23 01:55:42;;;;;;;18.60;17.40;;;11.60;99.90;;;;;;5089109;28;20863;-70
2023/03/23 01:58:11;;;;;;;18.40;17.10;;;11.50;99.90;;;;;;5086974;28;20461;-71
2023/03/23 02:00:40;;;;;;;17.57;16.57;;;11.50;99.90;;;;;;5088386;28;20964;-71
2023/03/23 02:03:08;;;;;;;18.13;17.03;;;11.50;99.90;;;;;;5094716;28;20454;-70
2023/03/23 02:05:39;;;;;;;17.10;16.10;;;11.50;99.90;;;;;;5098148;28;20928;-72
2023/03/23 02:08:08;;;;;;;17.03;15.87;;;11.50;99.90;;;;;;5096583;28;20477;-71
2023/03/23 02:10:37;;;;;;;15.53;14.60;;;11.40;99.90;;;;;;5097102;28;20523;-70
2023/03/23 02:13:07;;;;;;;15.30;14.20;;;11.40;99.90;;;;;;5104513;28;20974;-72
2023/03/23 02:15:46;;;;;;;15.50;14.50;;;11.40;99.90;;;;;;5099865;28;20469;-72
2023/03/23 02:18:25;;;;;;;14.53;13.73;;;11.40;99.90;;;;;;5098785;28;20464;-70
2023/03/23 02:21:14;;;;;;;15.70;14.37;;;11.30;99.90;;;;;;5096221;28;20557;-70
2023/03/23 02:23:58;;;;;;;14.17;13.37;;;11.30;99.90;;;;;;5097679;28;20545;-69
2023/03/23 02:26:38;;;;;;;13.40;12.50;;;11.30;99.90;;;;;;5096404;28;20457;-70
2023/03/23 02:29:21;;;;;;;12.63;11.93;;;11.30;99.90;;;;;;5090839;28;20477;-70
2023/03/23 02:32:05;;;;;;;13.30;12.30;;;11.30;99.90;;;;;;5100093;28;20457;-69
2023/03/23 02:34:38;;;;;;;12.20;11.40;;;11.30;99.90;;;;;;5093176;28;20461;-70
2023/03/23 02:37:10;;;;;;;12.00;11.20;;;11.30;99.90;;;;;;5095139;28;20488;-70
2023/03/23 02:39:43;;;;;;;11.47;10.70;;;11.30;99.90;;;;;;5092519;28;20462;-70
2023/03/23 02:42:13;;;;;;;11.00;10.30;;;11.30;99.90;;;;;;5098138;28;20477;-72
2023/03/23 02:44:44;;;;;;;11.10;10.33;;;11.30;99.90;;;;;;5096055;28;20486;-71
2023/03/23 02:47:16;;;;;;;9.70;9.07;;;11.30;99.90;;;;;;5100363;28;21053;-70
2023/03/23 02:49:47;;;;;;;8.73;8.20;;;11.40;99.90;;;;;;5097253;28;20861;-70
2023/03/23 02:52:19;;;;;;;8.83;8.03;;;11.40;99.90;;;;;;5095054;28;20497;-71
2023/03/23 02:54:49;;;;;;;8.43;7.73;;;11.40;99.90;;;;;;5105395;28;20457;-70
2023/03/23 02:57:16;;;;;;;7.87;7.27;;;11.50;99.90;;;;;;5093734;28;20744;-69
2023/03/23 02:59:43;;;;;;;8.00;7.40;;;11.50;99.90;;;;;;5092070;28;20469;-70
2023/03/23 03:02:15;;;;;;;7.60;6.90;;;11.60;99.90;;;;;;5094669;28;20464;-70
2023/03/23 03:04:46;;;;;;;7.40;6.90;;;11.60;99.90;;;;;;5096493;28;20477;-70
2023/03/23 03:07:27;;;;;;;6.97;6.50;;;11.60;99.90;;;;;;5102278;28;20452;-72
2023/03/23 03:09:57;;;;;;;7.70;7.00;;;11.70;99.90;;;;;;5099908;28;20456;-69
2023/03/23 03:12:34;;;;;;;8.00;7.40;;;11.70;99.90;;;;;;5091495;28;20461;-69
2023/03/23 03:15:11;;;;;;;7.80;7.20;;;11.80;99.90;;;;;;5095699;28;20540;-72
2023/03/23 03:17:45;;;;;;;7.50;7.00;;;11.80;99.90;;;;;;5088177;28;20484;-70
2023/03/23 03:20:15;;;;;;;7.90;7.20;;;11.90;99.90;;;;;;5090592;28;21008;-69
2023/03/23 03:22:44;;;;;;;8.20;7.60;;;11.90;99.90;;;;;;5101702;28;20461;-70
2023/03/23 03:25:13;;;;;;;7.07;6.67;;;11.90;99.90;;;;;;5090889;28;20737;-70
2023/03/23 03:27:41;;;;;;;6.73;6.43;;;11.90;99.90;;;;;;5098309;28;20592;-69
2023/03/23 03:30:14;;;;;;;7.20;6.60;;;11.90;99.90;;;;;;5093839;28;20489;-69
2023/03/23 03:32:48;;;;;;;6.97;6.57;;;11.90;99.90;;;;;;5088394;28;20689;-71
2023/03/23 03:35:17;;;;;;;7.90;7.40;;;11.90;99.90;;;;;;5088980;28;20461;-70
2023/03/23 03:37:44;;;;;;;7.37;6.87;;;12.00;99.90;;;;;;5097978;28;20462;-70
2023/03/23 03:40:14;;;;;;;6.70;6.30;;;12.00;99.90;;;;;;5097980;28;20453;-71
2023/03/23 03:42:42;;;;;;;7.40;6.77;;;12.10;99.90;;;;;;5090819;28;20492;-69
2023/03/23 03:45:12;;;;;;;6.17;5.77;;;12.10;99.90;;;;;;5090130;28;20492;-69
2023/03/23 03:47:39;;;;;;;6.40;6.00;;;12.10;99.90;;;;;;5093275;28;20469;-70
2023/03/23 03:50:08;;;;;;;7.63;7.13;;;12.10;99.90;;;;;;5091012;28;20462;-69
2023/03/23 03:52:38;;;;;;;6.80;6.30;;;12.10;99.90;;;;;;5093727;28;20834;-70
2023/03/23 03:55:06;;;;;;;7.17;6.77;;;12.10;99.90;;;;;;5096930;28;20512;-69
2023/03/23 03:57:33;;;;;;;6.43;6.13;;;12.20;99.90;;;;;;5092041;28;20458;-70
2023/03/23 04:00:04;;;;;;;7.20;6.80;;;12.20;99.90;;;;;;5090613;28;20462;-70
2023/03/23 04:02:32;;;;;;;7.60;7.00;;;12.20;99.90;;;;;;5091120;28;20494;-70
2023/03/23 04:05:04;;;;;;;7.60;7.20;;;12.20;99.90;;;;;;5090524;28;20906;-71
2023/03/23 04:07:31;;;;;;;7.73;7.27;;;12.20;99.90;;;;;;5095039;28;20523;-70
2023/03/23 04:09:59;;;;;;;7.47;6.27;;;12.20;99.90;;;;;;5090494;28;20851;-70
2023/03/23 04:12:26;;;;;;;8.00;7.60;;;12.30;99.90;;;;;;5090988;28;20476;-70
2023/03/23 04:14:53;;;;;;;6.80;6.40;;;12.30;99.90;;;;;;5092525;28;21010;-70
2023/03/23 04:17:20;;;;;;;8.07;7.27;;;12.30;99.90;;;;;;5098598;28;20518;-71
2023/03/23 04:19:48;;;;;;;7.50;6.97;;;12.30;99.90;;;;;;5093450;28;20492;-70
2023/03/23 04:22:16;;;;;;;8.33;7.73;;;12.20;99.90;;;;;;5095839;28;20458;-71
2023/03/23 04:24:43;;;;;;;7.90;7.40;;;12.30;99.90;;;;;;5088037;28;20582;-71
2023/03/23 04:27:13;;;;;;;8.07;7.57;;;12.30;99.90;;;;;;5095983;28;20462;-70
2023/03/23 04:29:39;;;;;;;7.83;7.23;;;12.20;99.90;;;;;;5092338;28;20631;-69
2023/03/23 04:32:06;;;;;;;8.93;7.50;;;12.20;99.90;;;;;;5093768;28;20831;-71
2023/03/23 04:34:35;;;;;;;7.50;7.10;;;12.20;99.90;;;;;;5094624;28;20515;-70
2023/03/23 04:37:02;;;;;;;8.90;8.30;;;12.20;99.90;;;;;;5096110;28;20466;-71
2023/03/23 04:39:33;;;;;;;7.67;7.27;;;12.20;99.90;;;;;;5097972;28;20492;-69
2023/03/23 04:42:00;;;;;;;8.57;7.87;;;12.20;99.90;;;;;;5091403;28;20558;-70
2023/03/23 04:44:32;;;;;;;8.80;8.20;;;12.20;99.90;;;;;;5093557;28;20459;-70
2023/03/23 04:47:02;;;;;;;8.70;8.10;;;12.30;99.90;;;;;;5086486;28;20471;-70
2023/03/23 04:49:29;;;;;;;9.20;8.47;;;12.30;99.90;;;;;;5097593;28;20521;-69
2023/03/23 04:51:56;;;;;;;9.77;8.87;;;12.30;99.90;;;;;;5094176;28;20816;-72
2023/03/23 04:54:24;;;;;;;7.93;7.33;;;12.30;99.90;;;;;;5089352;28;20945;-71
2023/03/23 04:56:51;;;;;;;8.00;7.50;;;12.30;99.90;;;;;;5088505;28;20461;-71
2023/03/23 04:59:17;;;;;;;8.27;7.77;;;12.30;99.90;;;;;;5085931;28;20465;-71
2023/03/23 05:01:45;;;;;;;9.20;8.60;;;12.30;99.90;;;;;;5085919;28;20818;-73
2023/03/23 05:04:16;;;;;;;10.20;7.97;;;12.20;99.90;;;;;;5091566;28;20461;-71
2023/03/23 05:06:44;;;;;;;8.80;8.10;;;12.30;99.90;;;;;;5087868;28;20460;-71
2023/03/23 05:09:11;;;;;;;8.83;8.33;;;12.30;99.90;;;;;;5087170;28;20895;-71
2023/03/23 05:11:39;;;;;;;9.33;8.73;;;12.30;99.90;;;;;;5093300;28;20536;-71
2023/03/23 05:14:06;;;;;;;8.60;8.10;;;12.30;99.90;;;;;;5090999;28;20466;-71
2023/03/23 05:16:36;;;;;;;7.90;7.30;;;12.30;99.90;;;;;;5087294;28;20498;-70
2023/03/23 05:19:05;;;;;;;9.67;8.87;;;12.20;99.90;;;;;;5089005;28;20485;-71
2023/03/23 05:21:32;;;;;;;8.10;7.60;;;12.20;99.90;;;;;;5090654;28;20561;-70
2023/03/23 05:24:00;;;;;;;7.60;7.20;;;12.20;99.90;;;;;;5093754;28;20461;-70
2023/03/23 05:26:29;;;;;;;8.27;7.50;;;12.20;99.90;;;;;;5095669;28;20526;-72
2023/03/23 05:28:56;;;;;;;8.60;7.80;;;12.20;99.90;;;;;;5091417;28;20481;-71
2023/03/23 05:31:24;;;;;;;8.17;7.57;;;12.20;99.90;;;;;;5086290;28;20465;-70
2023/03/23 05:33:51;;;;;;;8.20;7.67;;;12.10;99.90;;;;;;5091214;28;20456;-72
2023/03/23 05:36:19;;;;;;;8.60;8.00;;;12.20;99.90;;;;;;5090035;28;20470;-70
2023/03/23 05:38:47;;;;;;;8.80;7.97;;;12.10;99.90;;;;;;5088928;28;20489;-70
2023/03/23 05:41:14;;;;;;;9.00;8.30;;;12.10;99.90;;;;;;5088770;28;21024;-72
2023/03/23 05:43:41;;;;;;;9.23;8.53;;;12.10;99.90;;;;;;5089685;28;20492;-71
2023/03/23 05:46:09;;;;;;;8.27;7.67;;;12.00;99.90;;;;;;5086173;28;21020;-71
2023/03/23 05:48:36;;;;;;;8.43;7.70;;;12.00;99.90;;;;;;5093373;28;20955;-70
2023/03/23 05:51:03;;;;;;;9.50;8.90;;;12.00;99.90;;;;;;5089507;28;20485;-70
2023/03/23 05:53:32;;;;;;;8.00;7.50;;;12.00;99.90;;;;;;5095700;28;20475;-70
2023/03/23 05:56:03;;;;;;;8.23;7.63;;;12.00;99.90;;;;;;5087356;28;20758;-70
2023/03/23 05:58:30;;;;;;;8.10;7.43;;;12.00;99.90;;;;;;5093020;28;20506;-70
2023/03/23 06:00:57;;;;;;;8.20;7.60;;;12.00;99.90;;;;;;5083424;28;20564;-70
2023/03/23 06:03:24;;;;;;;7.80;7.40;;;12.00;99.90;;;;;;5091114;28;20504;-71
2023/03/23 06:05:50;;;;;;;9.40;8.43;;;12.00;99.90;;;;;;5089476;28;20485;-69
2023/03/23 06:08:17;;;;;;;9.97;7.73;;;12.10;99.90;;;;;;5087197;28;20458;-70
2023/03/23 06:10:46;;;;;;;8.97;8.27;;;12.10;99.90;;;;;;5087219;28;20458;-70
2023/03/23 06:13:14;;;;;;;8.97;8.33;;;12.20;99.90;;;;;;5087038;28;20492;-70
2023/03/23 06:15:41;;;;;;;8.43;7.93;;;12.20;99.90;;;;;;5088161;28;20514;-71
2023/03/23 06:18:08;;;;;;;8.67;8.07;;;12.30;99.90;;;;;;5087763;28;20485;-70
2023/03/23 06:20:36;;;;;;;8.83;8.33;;;12.20;99.90;;;;;;5093734;28;20469;-70
2023/03/23 06:23:04;;;;;;;8.27;7.83;;;12.30;99.90;;;;;;5088318;28;20488;-70
2023/03/23 06:25:31;;;;;;;9.43;8.47;;;12.40;99.90;;;;;;5089133;28;20484;-70
2023/03/23 06:27:59;;;;;;;9.77;8.93;;;12.40;99.90;;;;;;5096520;28;20473;-70
2023/03/23 06:30:28;;;;;;;9.30;8.70;;;12.50;99.90;;;;;;5087163;28;21018;-70
2023/03/23 06:32:56;;;;;;;9.60;8.80;;;12.50;99.90;;;;;;5089422;28;20461;-70
2023/03/23 06:35:23;;;;;;;9.50;8.60;;;12.50;99.90;;;;;;5092634;28;20543;-69
2023/03/23 06:37:51;;;;;;;9.37;8.77;;;12.50;99.90;;;;;;5090073;28;20470;-70
2023/03/23 06:40:19;;;;;;;10.03;9.37;;;12.50;99.90;;;;;;5090475;28;20550;-70
2023/03/23 06:42:46;;;;;;;9.83;8.87;;;12.50;99.90;;;;;;5086156;28;20576;-71
2023/03/23 06:45:14;;;;;;;11.60;9.43;;;12.60;99.90;;;;;;5087990;28;20484;-71
2023/03/23 06:47:41;;;;;;;10.30;9.50;;;12.60;99.90;;;;;;5083454;28;21040;-71
2023/03/23 06:50:08;;;;;;;10.47;9.77;;;12.70;99.90;;;;;;5086062;28;20811;-70
2023/03/23 06:52:35;;;;;;;10.20;9.50;;;12.70;99.90;;;;;;5090280;28;20462;-71
2023/03/23 06:55:02;;;;;;;10.50;9.80;;;12.60;99.90;;;;;;5093129;28;20457;-71
2023/03/23 06:57:29;;;;;;;11.93;9.77;;;12.60;99.90;;;;;;5090183;28;20501;-70
2023/03/23 06:59:56;;;;;;;10.50;9.80;;;12.70;99.90;;;;;;5087623;28;20851;-71
2023/03/23 07:02:25;;;;;;;9.90;9.20;;;12.70;99.90;;;;;;5092482;28;20462;-71
2023/03/23 07:04:53;;;;;;;9.83;9.23;;;12.70;99.90;;;;;;5088083;28;20852;-72
2023/03/23 07:07:21;;;;;;;10.23;9.53;;;12.80;99.90;;;;;;5089153;28;20895;-71
2023/03/23 07:09:47;;;;;;;11.33;10.50;;;12.80;99.90;;;;;;5092292;28;20457;-71
2023/03/23 07:12:15;;;;;;;11.37;10.37;;;12.90;99.90;;;;;;5093223;28;20460;-71
2023/03/23 07:14:42;;;;;;;10.97;10.33;;;12.90;99.90;;;;;;5091831;28;20469;-71
2023/03/23 07:17:09;;;;;;;11.70;11.00;;;13.00;99.90;;;;;;5089545;28;21246;-72
2023/03/23 07:19:37;;;;;;;12.20;10.97;;;13.10;99.90;;;;;;5089325;28;20454;-70
2023/03/23 07:22:05;;;;;;;11.30;10.80;;;13.10;99.90;;;;;;5095356;28;20468;-72
2023/03/23 07:24:32;;;;;;;12.40;11.53;;;12.90;99.90;;;;;;5092797;28;20460;-71
2023/03/23 07:26:59;;;;;;;12.70;11.90;;;13.00;99.90;;;;;;5087335;28;20912;-73
2023/03/23 07:29:26;;;;;;;11.63;11.03;;;13.10;99.90;;;;;;5068654;28;20512;-72
2023/03/23 07:31:53;;;;;;;13.60;12.70;;;13.10;99.90;;;;;;5083177;28;20510;-72
2023/03/23 07:34:20;;;;;;;13.23;12.20;;;13.20;99.90;;;;;;5087629;28;20472;-73
2023/03/23 07:36:48;;;;;;;11.80;11.20;;;13.10;99.90;;;;;;5092142;28;20466;-71
2023/03/23 07:39:15;;;;;;;12.57;11.60;;;13.10;99.90;;;;;;5089275;28;20607;-73
2023/03/23 07:41:43;;;;;;;12.97;12.20;;;13.20;99.90;;;;;;5086071;28;20793;-71
2023/03/23 07:44:10;;;;;;;13.23;12.43;;;13.40;99.90;;;;;;5093149;28;20472;-72
2023/03/23 07:46:37;;;;;;;13.30;12.50;;;13.50;99.90;;;;;;5085921;28;20486;-71
2023/03/23 07:49:05;;;;;;;14.43;13.67;;;13.40;99.90;;;;;;5086795;28;20619;-71
2023/03/23 07:51:32;;;;;;;12.50;11.90;;;13.40;99.90;;;;;;5091596;28;20939;-71
2023/03/23 07:54:02;;;;;;;13.60;12.83;;;13.50;99.90;;;;;;5089072;28;20474;-71
2023/03/23 07:56:29;;;;;;;13.50;12.73;;;13.50;99.90;;;;;;5085294;28;20464;-72
2023/03/23 07:58:56;;;;;;;13.33;12.50;;;13.60;99.90;;;;;;5089452;28;20465;-71
2023/03/23 08:01:23;;;;;;;13.23;12.53;;;13.60;99.90;;;;;;5089221;28;20960;-71
2023/03/23 08:03:51;;;;;;;13.40;12.60;;;13.60;99.90;;;;;;5084910;28;20497;-71
2023/03/23 08:06:19;;;;;;;14.17;13.20;;;13.60;99.90;;;;;;5089084;28;20494;-71
2023/03/23 08:08:46;;;;;;;13.63;12.93;;;13.60;99.90;;;;;;5089719;28;20480;-74
2023/03/23 08:11:15;;;;;;;13.70;12.90;;;13.80;99.90;;;;;;5088809;28;20537;-73
2023/03/23 08:13:42;;;;;;;13.50;12.80;;;13.80;99.90;;;;;;5090981;28;20458;-73
2023/03/23 08:16:09;;;;;;;14.40;13.23;;;13.90;99.90;;;;;;5088783;28;20462;-71
2023/03/23 08:18:36;;;;;;;14.33;13.43;;;13.70;99.90;;;;;;5092826;28;20465;-73
2023/03/23 08:21:04;;;;;;;14.10;13.30;;;13.80;99.90;;;;;;5095593;28;20453;-71
2023/03/23 08:23:32;;;;;;;14.53;13.63;;;13.90;99.90;;;;;;5088591;28;20976;-72
2023/03/23 08:25:59;;;;;;;14.13;13.23;;;13.90;99.90;;;;;;5090622;28;21140;-72
2023/03/23 08:28:28;;;;;;;13.80;13.10;;;14.10;99.90;;;;;;5087469;28;20474;-72
2023/03/23 08:30:54;;;;;;;14.83;13.70;;;14.30;99.90;;;;;;5086025;28;20481;-73
2023/03/23 08:33:22;;;;;;;15.90;14.57;;;14.40;99.90;;;;;;5086545;28;20859;-72
2023/03/23 08:35:56;;;;;;;15.80;14.50;;;14.50;99.90;;;;;;5088441;28;20862;-71
2023/03/23 08:38:23;;;;;;;15.20;14.20;;;14.50;99.90;;;;;;5086352;28;20468;-71
2023/03/23 08:40:52;;;;;;;15.53;14.33;;;14.60;99.90;;;;;;5086216;28;20551;-70
2023/03/23 08:43:19;;;;;;;16.37;14.97;;;14.70;99.90;;;;;;5088699;28;20490;-72
2023/03/23 08:45:47;;;;;;;15.80;14.80;;;14.70;99.90;;;;;;5087012;28;20460;-70
2023/03/23 08:48:15;;;;;;;15.50;14.50;;;14.60;99.90;;;;;;5086298;28;20514;-69
2023/03/23 08:50:41;;;;;;;15.77;14.77;;;14.70;99.90;;;;;;5092680;28;20462;-70
2023/03/23 08:53:08;;;;;;;15.07;14.23;;;14.80;99.90;;;;;;5088971;28;20461;-72
2023/03/23 08:55:35;;;;;;;15.67;14.73;;;14.80;99.90;;;;;;5085227;28;20467;-70
2023/03/23 08:58:03;;;;;;;19.90;14.83;;;14.90;99.90;;;;;;5085202;28;20460;-73
2023/03/23 09:00:30;;;;;;;15.40;14.40;;;14.90;99.90;;;;;;5084001;28;20459;-70
2023/03/23 09:02:58;;;;;;;15.30;14.20;;;14.90;99.90;;;;;;5093392;28;20494;-72
2023/03/23 09:05:28;;;;;;;15.13;14.23;;;15.00;99.90;;;;;;5086837;28;20450;-70
2023/03/23 09:07:58;;;;;;;15.13;14.40;;;14.90;99.90;;;;;;5084703;28;20492;-70
2023/03/23 09:10:26;;;;;;;16.60;15.00;;;14.90;99.90;;;;;;5087926;28;21033;-72
2023/03/23 09:12:54;;;;;;;15.50;14.50;;;15.00;99.90;;;;;;5084687;28;20926;-70
2023/03/23 09:15:22;;;;;;;15.73;14.70;;;14.90;99.90;;;;;;5090759;28;20555;-70
2023/03/23 09:17:50;;;;;;;15.10;14.10;;;14.80;99.90;;;;;;5085815;28;20552;-71
2023/03/23 09:20:22;;;;;;;15.80;14.63;;;14.80;99.90;;;;;;5087565;28;20465;-72
2023/03/23 09:22:50;;;;;;;15.57;14.47;;;14.80;99.90;;;;;;5086230;28;20462;-70
2023/03/23 09:25:21;;;;;;;15.63;14.57;;;14.80;99.90;;;;;;5087024;28;20462;-70
2023/03/23 09:27:52;;;;;;;14.43;13.70;;;14.50;99.90;;;;;;5082799;28;20499;-72
2023/03/23 09:30:20;;;;;;;14.73;13.80;;;14.40;99.90;;;;;;5092804;28;20499;-71
2023/03/23 09:32:48;;;;;;;15.80;14.80;;;14.30;99.90;;;;;;5089650;28;20597;-70
2023/03/23 09:35:16;;;;;;;15.87;14.17;;;14.20;99.90;;;;;;5087885;28;20542;-71
2023/03/23 09:37:46;;;;;;;14.77;13.80;;;14.20;99.90;;;;;;5084897;28;20684;-71
2023/03/23 09:40:18;;;;;;;15.20;14.17;;;14.30;99.90;;;;;;5086715;28;20530;-70
2023/03/23 09:43:18;;;;;;;14.40;13.50;;;14.20;99.90;;;;;;5090460;28;21007;-71
2023/03/23 09:45:52;;;;;;;13.53;12.63;;;14.20;99.90;;;;;;5091556;28;20465;-72
2023/03/23 09:48:38;;;;;;;13.27;12.57;;;14.10;99.90;;;;;;5093355;28;20464;-72
2023/03/23 09:51:15;;;;;;;11.30;10.70;;;13.70;99.90;;;;;;5085993;28;20462;-70
2023/03/23 09:53:48;;;;;;;9.80;9.00;;;13.00;99.90;;;;;;5082200;28;20993;-70
2023/03/23 09:56:17;;;;;;;12.33;11.83;;;12.40;99.90;;;;;;5091557;28;20940;-70
2023/03/23 09:58:49;;;;;;;13.50;12.40;;;12.00;99.90;;;;;;5089492;28;20449;-69
2023/03/23 10:01:21;;;;;;;17.77;16.77;;;11.60;99.90;;;;;;5085857;28;20470;-71
2023/03/23 10:03:48;;;;;;;17.90;16.80;;;11.20;99.90;;;;;;5093152;28;20454;-71
2023/03/23 10:06:18;;;;;;;18.03;17.10;;;10.90;99.90;;;;;;5086926;28;20480;-70
2023/03/23 10:08:49;;;;;;;18.03;16.80;;;10.70;99.90;;;;;;5086980;28;20498;-71
2023/03/23 10:11:29;;;;;;;18.20;17.00;;;10.50;99.90;;;;;;5089374;28;20831;-71
2023/03/23 10:14:11;;;;;;;16.63;15.73;;;10.40;99.90;;;;;;5090106;28;20464;-71
2023/03/23 10:16:42;;;;;;;18.47;17.40;;;10.40;99.90;;;;;;5087941;28;20499;-71
2023/03/23 10:19:13;;;;;;;18.40;17.00;;;10.40;99.90;;;;;;5092106;28;20796;-71
2023/03/23 10:21:46;;;;;;;17.00;15.87;;;10.50;99.90;;;;;;5087564;28;20544;-72
2023/03/23 10:24:17;;;;;;;16.73;15.93;;;10.50;99.90;;;;;;5083769;28;20457;-71
2023/03/23 10:26:51;;;;;;;15.67;14.87;;;10.50;99.90;;;;;;5090101;28;20484;-72
2023/03/23 10:29:22;;;;;;;16.53;15.37;;;10.50;99.90;;;;;;5088784;28;21027;-71
2023/03/23 10:31:53;;;;;;;15.50;14.57;;;10.50;99.90;;;;;;5088917;28;20456;-72
2023/03/23 10:34:25;;;;;;;15.63;14.77;;;10.70;99.90;;;;;;5087207;28;21058;-71
2023/03/23 10:36:58;;;;;;;15.83;14.93;;;10.70;99.90;;;;;;5088620;28;20464;-71
2023/03/23 10:39:30;;;;;;;15.50;14.50;;;10.80;99.90;;;;;;5092649;28;20545;-71
2023/03/23 10:42:02;;;;;;;14.83;14.00;;;10.80;99.90;;;;;;5092194;28;20477;-72
2023/03/23 10:44:31;;;;;;;14.77;13.80;;;10.80;99.90;;;;;;5091250;28;20556;-71
2023/03/23 10:47:02;;;;;;;16.07;15.00;;;10.90;99.90;;;;;;5086592;28;20929;-72
2023/03/23 10:49:34;;;;;;;15.67;14.67;;;11.10;99.90;;;;;;5091075;28;20834;-71
2023/03/23 10:52:08;;;;;;;14.70;14.00;;;11.00;99.90;;;;;;5088975;28;20458;-71
2023/03/23 10:54:39;;;;;;;15.80;14.77;;;11.00;99.90;;;;;;5093410;28;20457;-71
2023/03/23 10:57:14;;;;;;;17.00;15.50;;;10.90;99.90;;;;;;5080858;28;20482;-72
2023/03/23 10:59:42;;;;;;;13.53;12.50;;;10.70;99.90;;;;;;5094271;28;20549;-73
2023/03/23 11:02:15;;;;;;;13.33;12.23;;;10.60;99.90;;;;;;5089088;28;20484;-73
2023/03/23 11:04:48;;;;;;;12.87;12.27;;;10.50;99.90;;;;;;5088136;28;20488;-73
2023/03/23 11:07:22;;;;;;;12.47;11.87;;;10.60;99.90;;;;;;5082337;28;20504;-72
2023/03/23 11:09:55;;;;;;;12.53;11.83;;;10.60;99.90;;;;;;5091861;28;20553;-72
2023/03/23 11:12:23;;;;;;;11.30;10.70;;;10.70;99.90;;;;;;5099086;28;20459;-72
2023/03/23 11:14:49;;;;;;;12.47;11.77;;;10.80;99.90;;;;;;5092907;28;20886;-72
2023/03/23 11:17:23;;;;;;;10.93;10.33;;;10.90;99.90;;;;;;5084503;28;20475;-72
2023/03/23 11:19:50;;;;;;;10.30;9.80;;;11.10;99.90;;;;;;5088095;28;20505;-72
2023/03/23 11:22:25;;;;;;;10.30;9.70;;;11.50;99.90;;;;;;5093910;28;20473;-73
2023/03/23 11:24:54;;;;;;;9.90;9.40;;;11.90;99.90;;;;;;5096076;28;20958;-71
2023/03/23 11:27:24;;;;;;;11.10;10.30;;;11.90;99.90;;;;;;5085730;28;21615;-72
2023/03/23 11:29:53;;;;;;;13.90;12.90;;;11.80;99.90;;;;;;5088947;28;21091;-71
2023/03/23 11:32:23;;;;;;;15.23;14.00;;;11.80;99.90;;;;;;5084118;28;20908;-71
2023/03/23 11:34:55;;;;;;;13.70;12.40;;;11.90;99.90;;;;;;5085251;28;20988;-73
2023/03/23 11:37:31;;;;;;;12.93;11.80;;;11.80;99.90;;;;;;5089577;28;21472;-72
2023/03/23 11:40:06;;;;;;;14.80;13.70;;;12.00;99.90;;;;;;5089315;28;20509;-72
2023/03/23 11:42:38;;;;;;;13.73;12.70;;;12.30;99.90;;;;;;5087192;28;20489;-73
2023/03/23 11:45:17;;;;;;;12.50;11.30;;;12.80;99.90;;;;;;5084680;28;20462;-72
2023/03/23 11:47:50;;;;;;;11.50;10.70;;;13.10;99.90;;;;;;5081180;28;21011;-72
2023/03/23 11:50:21;;;;;;;10.37;9.67;;;13.20;99.90;;;;;;5087879;28;20465;-73
2023/03/23 11:52:56;;;;;;;10.57;9.03;;;13.30;99.90;;;;;;5089470;28;20458;-73
2023/03/23 11:55:28;;;;;;;8.20;7.63;;;13.60;99.90;;;;;;5089332;28;20489;-73
2023/03/23 11:57:56;;;;;;;9.03;8.20;;;13.60;99.90;;;;;;5084943;28;20772;-73
2023/03/23 12:00:25;;;;;;;9.13;8.33;;;13.80;99.90;;;;;;5084704;28;20828;-72
2023/03/23 12:03:40;;;;;;;9.40;8.50;;;13.70;99.90;;;;;;5092076;28;20556;-72
2023/03/23 12:06:08;;;;;;;9.60;8.90;;;13.50;99.90;;;;;;5090483;28;20486;-71
2023/03/23 12:08:53;;;;;;;11.53;10.23;;;13.50;99.90;;;;;;5091703;28;20481;-71
2023/03/23 12:11:27;;;;;;;15.70;14.53;;;13.20;99.90;;;;;;5094942;28;20458;-71
2023/03/23 12:14:05;;;;;;;15.73;14.73;;;13.10;99.90;;;;;;5087835;28;20823;-71
2023/03/23 12:16:43;;;;;;;15.70;14.43;;;12.60;99.90;;;;;;5089031;28;20457;-71
2023/03/23 12:19:18;;;;;;;14.77;13.83;;;12.50;99.90;;;;;;5092296;28;20457;-71
2023/03/23 12:21:53;;;;;;;14.00;13.10;;;12.60;99.90;;;;;;5093294;28;20827;-72
2023/03/23 12:24:31;;;;;;;13.00;12.30;;;12.90;99.90;;;;;;5086625;28;20552;-73
2023/03/23 12:27:05;;;;;;;1999.90;195.13;;;13.00;99.90;;;;;;5090164;28;20824;-71
2023/03/23 12:29:56;;;;;;;31.63;11.93;;;13.90;99.90;;;;;;5085244;28;21105;-72
2023/03/23 12:32:50;;;;;;;9.73;8.93;;;14.50;99.90;;;;;;5084106;28;22407;-72
2023/03/23 12:35:27;;;;;;;12.00;10.50;;;14.60;99.90;;;;;;5086338;28;20472;-72
2023/03/23 12:38:06;;;;;;;12.63;11.50;;;14.30;99.90;;;;;;5094385;28;20475;-72
2023/03/23 12:40:49;;;;;;;11.80;10.60;;;14.00;99.90;;;;;;5091411;28;20981;-72
2023/03/23 12:43:35;;;;;;;10.80;9.80;;;13.90;99.90;;;;;;5089181;28;20577;-73
2023/03/23 12:46:14;;;;;;;12.20;11.23;;;13.80;99.90;;;;;;5083706;28;20453;-72
2023/03/23 12:48:46;;;;;;;13.70;12.40;;;13.40;99.90;;;;;;5085280;28;21244;-72
2023/03/23 12:51:19;;;;;;;14.03;13.03;;;13.30;99.90;;;;;;5089437;28;20476;-72